sensor_id;sensor_type;location;lat;lon;timestamp;P1;durP1;ratioP1;P2;durP2;ratioP2
16665;SDS011;8446;50.998;6.250;2023-07-31T00:01:07;7.93;;;3.10;;
16665;SDS011;8446;50.998;6.250;2023-07-31T00:03:34;8.00;;;3.23;;
16665;SDS011;8446;50.998;6.250;2023-07-31T00:06:01;15.23;;;4.67;;
16665;SDS011;8446;50.998;6.250;2023-07-31T00:08:28;8.47;;;3.40;;
16665;SDS011;8446;50.998;6.250;2023-07-31T00:10:54;12.90;;;3.70;;
16665;SDS011;8446;50.998;6.250;2023-07-31T00:13:21;11.87;;;3.33;;
16665;SDS011;8446;50.998;6.250;2023-07-31T00:15:49;11.03;;;4.60;;
16665;SDS011;8446;50.998;6.250;2023-07-31T00:18:16;10.63;;;3.80;;
16665;SDS011;8446;50.998;6.250;2023-07-31T00:20:43;9.10;;;3.00;;
16665;SDS011;8446;50.998;6.250;2023-07-31T00:23:09;7.20;;;3.63;;
16665;SDS011;8446;50.998;6.250;2023-07-31T00:25:36;7.80;;;3.27;;
16665;SDS011;8446;50.998;6.250;2023-07-31T00:28:03;17.43;;;3.00;;
16665;SDS011;8446;50.998;6.250;2023-07-31T00:30:30;11.53;;;3.80;;
16665;SDS011;8446;50.998;6.250;2023-07-31T00:32:59;8.03;;;3.07;;
16665;SDS011;8446;50.998;6.250;2023-07-31T00:35:26;10.70;;;3.40;;
16665;SDS011;8446;50.998;6.250;2023-07-31T00:37:52;6.73;;;3.10;;
16665;SDS011;8446;50.998;6.250;2023-07-31T00:40:19;7.10;;;3.63;;
16665;SDS011;8446;50.998;6.250;2023-07-31T00:42:46;7.80;;;2.83;;
16665;SDS011;8446;50.998;6.250;2023-07-31T00:45:13;11.67;;;3.30;;
16665;SDS011;8446;50.998;6.250;2023-07-31T00:47:40;5.33;;;3.27;;
16665;SDS011;8446;50.998;6.250;2023-07-31T00:50:08;14.17;;;3.40;;
16665;SDS011;8446;50.998;6.250;2023-07-31T00:52:35;10.57;;;3.37;;
16665;SDS011;8446;50.998;6.250;2023-07-31T00:55:03;9.00;;;2.83;;
16665;SDS011;8446;50.998;6.250;2023-07-31T00:57:30;5.20;;;2.93;;
16665;SDS011;8446;50.998;6.250;2023-07-31T00:59:59;6.73;;;3.00;;
16665;SDS011;8446;50.998;6.250;2023-07-31T01:02:26;5.87;;;3.23;;
16665;SDS011;8446;50.998;6.250;2023-07-31T01:04:53;7.30;;;3.10;;
16665;SDS011;8446;50.998;6.250;2023-07-31T01:07:22;15.33;;;3.93;;
16665;SDS011;8446;50.998;6.250;2023-07-31T01:09:58;9.20;;;4.00;;
16665;SDS011;8446;50.998;6.250;2023-07-31T01:12:30;6.07;;;3.10;;
16665;SDS011;8446;50.998;6.250;2023-07-31T01:15:04;11.80;;;4.03;;
16665;SDS011;8446;50.998;6.250;2023-07-31T01:17:35;10.00;;;3.20;;
16665;SDS011;8446;50.998;6.250;2023-07-31T01:20:03;8.20;;;3.60;;
16665;SDS011;8446;50.998;6.250;2023-07-31T01:22:43;6.13;;;3.30;;
16665;SDS011;8446;50.998;6.250;2023-07-31T01:25:24;16.03;;;3.37;;
16665;SDS011;8446;50.998;6.250;2023-07-31T01:28:05;14.20;;;4.00;;
16665;SDS011;8446;50.998;6.250;2023-07-31T01:30:37;10.03;;;3.70;;
16665;SDS011;8446;50.998;6.250;2023-07-31T01:33:09;10.43;;;3.53;;
16665;SDS011;8446;50.998;6.250;2023-07-31T01:35:36;13.87;;;4.27;;
16665;SDS011;8446;50.998;6.250;2023-07-31T01:38:04;10.80;;;3.20;;
16665;SDS011;8446;50.998;6.250;2023-07-31T01:40:31;16.33;;;3.20;;
16665;SDS011;8446;50.998;6.250;2023-07-31T01:42:58;12.00;;;4.30;;
16665;SDS011;8446;50.998;6.250;2023-07-31T01:45:26;6.47;;;3.43;;
16665;SDS011;8446;50.998;6.250;2023-07-31T01:47:53;15.03;;;3.90;;
16665;SDS011;8446;50.998;6.250;2023-07-31T01:50:20;7.37;;;3.37;;
16665;SDS011;8446;50.998;6.250;2023-07-31T01:52:47;6.27;;;3.80;;
16665;SDS011;8446;50.998;6.250;2023-07-31T01:55:13;6.80;;;3.60;;
16665;SDS011;8446;50.998;6.250;2023-07-31T01:57:40;12.20;;;5.00;;
16665;SDS011;8446;50.998;6.250;2023-07-31T02:00:08;10.80;;;3.70;;
16665;SDS011;8446;50.998;6.250;2023-07-31T02:02:36;8.60;;;3.10;;
16665;SDS011;8446;50.998;6.250;2023-07-31T02:05:03;6.90;;;3.47;;
16665;SDS011;8446;50.998;6.250;2023-07-31T02:07:30;12.00;;;3.70;;
16665;SDS011;8446;50.998;6.250;2023-07-31T02:09:57;8.30;;;4.30;;
16665;SDS011;8446;50.998;6.250;2023-07-31T02:12:24;10.00;;;3.57;;
16665;SDS011;8446;50.998;6.250;2023-07-31T02:14:51;8.93;;;3.47;;
16665;SDS011;8446;50.998;6.250;2023-07-31T02:17:17;8.47;;;3.20;;
16665;SDS011;8446;50.998;6.250;2023-07-31T02:19:46;9.53;;;4.20;;
16665;SDS011;8446;50.998;6.250;2023-07-31T02:22:13;11.60;;;3.93;;
16665;SDS011;8446;50.998;6.250;2023-07-31T02:24:39;10.53;;;3.60;;
16665;SDS011;8446;50.998;6.250;2023-07-31T02:27:06;11.27;;;5.60;;
16665;SDS011;8446;50.998;6.250;2023-07-31T02:29:33;7.97;;;4.07;;
16665;SDS011;8446;50.998;6.250;2023-07-31T02:32:00;12.13;;;3.50;;
16665;SDS011;8446;50.998;6.250;2023-07-31T02:34:26;7.87;;;3.30;;
16665;SDS011;8446;50.998;6.250;2023-07-31T02:36:55;8.80;;;5.50;;
16665;SDS011;8446;50.998;6.250;2023-07-31T02:39:21;10.10;;;3.90;;
16665;SDS011;8446;50.998;6.250;2023-07-31T02:41:48;11.83;;;4.80;;
16665;SDS011;8446;50.998;6.250;2023-07-31T02:44:15;12.17;;;4.00;;
16665;SDS011;8446;50.998;6.250;2023-07-31T02:46:42;7.97;;;4.20;;
16665;SDS011;8446;50.998;6.250;2023-07-31T02:49:08;10.90;;;4.10;;
16665;SDS011;8446;50.998;6.250;2023-07-31T02:51:35;14.30;;;4.17;;
16665;SDS011;8446;50.998;6.250;2023-07-31T02:54:03;8.30;;;3.80;;
16665;SDS011;8446;50.998;6.250;2023-07-31T02:56:30;8.70;;;3.40;;
16665;SDS011;8446;50.998;6.250;2023-07-31T02:58:57;12.17;;;4.30;;
16665;SDS011;8446;50.998;6.250;2023-07-31T03:01:23;12.17;;;4.43;;
16665;SDS011;8446;50.998;6.250;2023-07-31T03:03:50;9.57;;;3.93;;
16665;SDS011;8446;50.998;6.250;2023-07-31T03:06:17;14.97;;;4.03;;
16665;SDS011;8446;50.998;6.250;2023-07-31T03:08:44;6.03;;;3.90;;
16665;SDS011;8446;50.998;6.250;2023-07-31T03:11:12;9.73;;;3.53;;
16665;SDS011;8446;50.998;6.250;2023-07-31T03:13:39;9.20;;;3.47;;
16665;SDS011;8446;50.998;6.250;2023-07-31T03:16:06;10.23;;;3.80;;
16665;SDS011;8446;50.998;6.250;2023-07-31T03:18:32;5.43;;;3.27;;
16665;SDS011;8446;50.998;6.250;2023-07-31T03:20:59;10.67;;;3.73;;
16665;SDS011;8446;50.998;6.250;2023-07-31T03:23:26;11.83;;;4.23;;
16665;SDS011;8446;50.998;6.250;2023-07-31T03:25:56;11.60;;;4.27;;
16665;SDS011;8446;50.998;6.250;2023-07-31T03:28:24;11.00;;;4.90;;
16665;SDS011;8446;50.998;6.250;2023-07-31T03:30:51;6.50;;;4.10;;
16665;SDS011;8446;50.998;6.250;2023-07-31T03:33:18;13.37;;;4.00;;
16665;SDS011;8446;50.998;6.250;2023-07-31T03:35:45;11.03;;;4.63;;
16665;SDS011;8446;50.998;6.250;2023-07-31T03:38:12;9.57;;;4.40;;
16665;SDS011;8446;50.998;6.250;2023-07-31T03:40:39;13.03;;;5.20;;
16665;SDS011;8446;50.998;6.250;2023-07-31T03:43:06;11.17;;;4.07;;
16665;SDS011;8446;50.998;6.250;2023-07-31T03:45:34;10.30;;;4.37;;
16665;SDS011;8446;50.998;6.250;2023-07-31T03:48:01;8.40;;;4.93;;
16665;SDS011;8446;50.998;6.250;2023-07-31T03:50:28;6.97;;;4.77;;
16665;SDS011;8446;50.998;6.250;2023-07-31T03:52:55;18.60;;;5.00;;
16665;SDS011;8446;50.998;6.250;2023-07-31T03:55:21;14.37;;;4.80;;
16665;SDS011;8446;50.998;6.250;2023-07-31T03:57:48;6.60;;;4.10;;
16665;SDS011;8446;50.998;6.250;2023-07-31T04:00:15;10.47;;;4.30;;
16665;SDS011;8446;50.998;6.250;2023-07-31T04:02:43;6.47;;;4.30;;
16665;SDS011;8446;50.998;6.250;2023-07-31T04:05:10;9.97;;;4.10;;
16665;SDS011;8446;50.998;6.250;2023-07-31T04:07:37;9.70;;;4.10;;
16665;SDS011;8446;50.998;6.250;2023-07-31T04:10:04;9.20;;;4.20;;
16665;SDS011;8446;50.998;6.250;2023-07-31T04:12:31;9.97;;;4.70;;
16665;SDS011;8446;50.998;6.250;2023-07-31T04:14:58;8.20;;;3.90;;
16665;SDS011;8446;50.998;6.250;2023-07-31T04:17:25;11.00;;;4.60;;
16665;SDS011;8446;50.998;6.250;2023-07-31T04:19:53;10.13;;;3.70;;
16665;SDS011;8446;50.998;6.250;2023-07-31T04:22:19;10.73;;;4.27;;
16665;SDS011;8446;50.998;6.250;2023-07-31T04:24:47;7.67;;;3.77;;
16665;SDS011;8446;50.998;6.250;2023-07-31T04:27:13;11.63;;;4.90;;
16665;SDS011;8446;50.998;6.250;2023-07-31T04:29:40;9.53;;;3.97;;
16665;SDS011;8446;50.998;6.250;2023-07-31T04:32:09;8.97;;;3.67;;
16665;SDS011;8446;50.998;6.250;2023-07-31T04:34:36;6.47;;;4.03;;
16665;SDS011;8446;50.998;6.250;2023-07-31T04:37:04;8.67;;;4.23;;
16665;SDS011;8446;50.998;6.250;2023-07-31T04:39:31;8.53;;;4.20;;
16665;SDS011;8446;50.998;6.250;2023-07-31T04:41:58;9.03;;;3.73;;
16665;SDS011;8446;50.998;6.250;2023-07-31T04:44:24;15.47;;;4.30;;
16665;SDS011;8446;50.998;6.250;2023-07-31T04:46:51;12.87;;;4.20;;
16665;SDS011;8446;50.998;6.250;2023-07-31T04:49:18;7.00;;;3.83;;
16665;SDS011;8446;50.998;6.250;2023-07-31T04:51:45;8.33;;;3.60;;
16665;SDS011;8446;50.998;6.250;2023-07-31T04:54:13;12.90;;;4.07;;
16665;SDS011;8446;50.998;6.250;2023-07-31T04:56:40;4.97;;;3.17;;
16665;SDS011;8446;50.998;6.250;2023-07-31T04:59:07;5.10;;;3.50;;
16665;SDS011;8446;50.998;6.250;2023-07-31T05:01:34;8.80;;;3.77;;
16665;SDS011;8446;50.998;6.250;2023-07-31T05:04:01;7.53;;;4.00;;
16665;SDS011;8446;50.998;6.250;2023-07-31T05:06:28;6.27;;;3.60;;
16665;SDS011;8446;50.998;6.250;2023-07-31T05:08:55;10.23;;;3.80;;
16665;SDS011;8446;50.998;6.250;2023-07-31T05:11:23;12.50;;;3.47;;
16665;SDS011;8446;50.998;6.250;2023-07-31T05:13:50;9.07;;;3.90;;
16665;SDS011;8446;50.998;6.250;2023-07-31T05:16:16;8.43;;;3.30;;
16665;SDS011;8446;50.998;6.250;2023-07-31T05:18:43;5.77;;;3.77;;
16665;SDS011;8446;50.998;6.250;2023-07-31T05:21:10;5.90;;;3.43;;
16665;SDS011;8446;50.998;6.250;2023-07-31T05:23:37;7.00;;;3.50;;
16665;SDS011;8446;50.998;6.250;2023-07-31T05:26:04;8.10;;;3.60;;
16665;SDS011;8446;50.998;6.250;2023-07-31T05:28:33;5.63;;;3.00;;
16665;SDS011;8446;50.998;6.250;2023-07-31T05:31:01;6.20;;;3.10;;
16665;SDS011;8446;50.998;6.250;2023-07-31T05:33:28;10.20;;;3.27;;
16665;SDS011;8446;50.998;6.250;2023-07-31T05:35:55;8.33;;;3.60;;
16665;SDS011;8446;50.998;6.250;2023-07-31T05:38:22;5.80;;;3.37;;
16665;SDS011;8446;50.998;6.250;2023-07-31T05:40:49;7.63;;;4.00;;
16665;SDS011;8446;50.998;6.250;2023-07-31T05:43:16;8.67;;;3.30;;
16665;SDS011;8446;50.998;6.250;2023-07-31T05:45:44;6.10;;;3.47;;
16665;SDS011;8446;50.998;6.250;2023-07-31T05:48:11;12.00;;;3.20;;
16665;SDS011;8446;50.998;6.250;2023-07-31T05:50:37;6.90;;;3.10;;
16665;SDS011;8446;50.998;6.250;2023-07-31T05:53:05;9.87;;;3.77;;
16665;SDS011;8446;50.998;6.250;2023-07-31T05:55:33;6.57;;;2.93;;
16665;SDS011;8446;50.998;6.250;2023-07-31T05:58:00;7.60;;;3.47;;
16665;SDS011;8446;50.998;6.250;2023-07-31T06:00:26;4.77;;;3.10;;
16665;SDS011;8446;50.998;6.250;2023-07-31T06:02:55;7.90;;;4.20;;
16665;SDS011;8446;50.998;6.250;2023-07-31T06:05:21;11.03;;;4.30;;
16665;SDS011;8446;50.998;6.250;2023-07-31T06:07:48;8.73;;;3.13;;
16665;SDS011;8446;50.998;6.250;2023-07-31T06:10:15;6.07;;;3.63;;
16665;SDS011;8446;50.998;6.250;2023-07-31T06:12:42;9.33;;;3.30;;
16665;SDS011;8446;50.998;6.250;2023-07-31T06:15:09;7.07;;;3.97;;
16665;SDS011;8446;50.998;6.250;2023-07-31T06:17:36;6.70;;;3.37;;
16665;SDS011;8446;50.998;6.250;2023-07-31T06:20:06;6.90;;;3.43;;
16665;SDS011;8446;50.998;6.250;2023-07-31T06:22:33;7.40;;;2.80;;
16665;SDS011;8446;50.998;6.250;2023-07-31T06:25:00;6.03;;;3.17;;
16665;SDS011;8446;50.998;6.250;2023-07-31T06:27:27;9.10;;;3.10;;
16665;SDS011;8446;50.998;6.250;2023-07-31T06:29:53;8.73;;;3.30;;
16665;SDS011;8446;50.998;6.250;2023-07-31T06:32:20;5.77;;;3.27;;
16665;SDS011;8446;50.998;6.250;2023-07-31T06:34:47;9.20;;;3.67;;
16665;SDS011;8446;50.998;6.250;2023-07-31T06:37:15;7.50;;;3.10;;
16665;SDS011;8446;50.998;6.250;2023-07-31T06:39:42;4.53;;;3.03;;
16665;SDS011;8446;50.998;6.250;2023-07-31T06:42:09;4.10;;;2.80;;
16665;SDS011;8446;50.998;6.250;2023-07-31T06:44:36;9.27;;;3.17;;
16665;SDS011;8446;50.998;6.250;2023-07-31T06:47:03;7.63;;;2.70;;
16665;SDS011;8446;50.998;6.250;2023-07-31T06:49:30;6.40;;;2.90;;
16665;SDS011;8446;50.998;6.250;2023-07-31T06:51:57;13.40;;;3.07;;
16665;SDS011;8446;50.998;6.250;2023-07-31T06:54:25;4.00;;;2.70;;
16665;SDS011;8446;50.998;6.250;2023-07-31T06:56:52;3.00;;;2.43;;
16665;SDS011;8446;50.998;6.250;2023-07-31T06:59:19;5.07;;;3.00;;
16665;SDS011;8446;50.998;6.250;2023-07-31T07:01:45;4.40;;;2.67;;
16665;SDS011;8446;50.998;6.250;2023-07-31T07:04:13;7.13;;;2.80;;
16665;SDS011;8446;50.998;6.250;2023-07-31T07:06:40;6.10;;;2.83;;
16665;SDS011;8446;50.998;6.250;2023-07-31T07:09:07;6.50;;;3.00;;
16665;SDS011;8446;50.998;6.250;2023-07-31T07:11:35;7.40;;;3.10;;
16665;SDS011;8446;50.998;6.250;2023-07-31T07:14:02;6.10;;;3.30;;
16665;SDS011;8446;50.998;6.250;2023-07-31T07:16:29;9.20;;;3.90;;
16665;SDS011;8446;50.998;6.250;2023-07-31T07:18:56;6.13;;;3.10;;
16665;SDS011;8446;50.998;6.250;2023-07-31T07:21:23;6.13;;;3.53;;
16665;SDS011;8446;50.998;6.250;2023-07-31T07:23:50;8.07;;;2.93;;
16665;SDS011;8446;50.998;6.250;2023-07-31T07:26:17;9.90;;;3.27;;
16665;SDS011;8446;50.998;6.250;2023-07-31T07:28:45;4.73;;;2.87;;
16665;SDS011;8446;50.998;6.250;2023-07-31T07:31:11;9.03;;;3.33;;
16665;SDS011;8446;50.998;6.250;2023-07-31T07:33:38;6.63;;;3.40;;
16665;SDS011;8446;50.998;6.250;2023-07-31T07:36:05;6.27;;;3.03;;
16665;SDS011;8446;50.998;6.250;2023-07-31T07:38:34;8.87;;;3.30;;
16665;SDS011;8446;50.998;6.250;2023-07-31T07:41:02;6.70;;;3.20;;
16665;SDS011;8446;50.998;6.250;2023-07-31T07:43:28;9.87;;;2.73;;
16665;SDS011;8446;50.998;6.250;2023-07-31T07:45:57;6.90;;;3.10;;
16665;SDS011;8446;50.998;6.250;2023-07-31T07:48:23;5.03;;;2.73;;
16665;SDS011;8446;50.998;6.250;2023-07-31T07:50:51;4.90;;;3.70;;
16665;SDS011;8446;50.998;6.250;2023-07-31T07:53:17;10.33;;;4.10;;
16665;SDS011;8446;50.998;6.250;2023-07-31T07:55:44;4.07;;;3.23;;
16665;SDS011;8446;50.998;6.250;2023-07-31T07:58:11;7.70;;;3.43;;
16665;SDS011;8446;50.998;6.250;2023-07-31T08:00:38;5.93;;;2.73;;
16665;SDS011;8446;50.998;6.250;2023-07-31T08:03:07;10.17;;;3.40;;
16665;SDS011;8446;50.998;6.250;2023-07-31T08:05:34;7.67;;;3.20;;
16665;SDS011;8446;50.998;6.250;2023-07-31T08:08:02;8.37;;;3.53;;
16665;SDS011;8446;50.998;6.250;2023-07-31T08:10:29;10.00;;;3.67;;
16665;SDS011;8446;50.998;6.250;2023-07-31T08:12:56;8.60;;;3.20;;
16665;SDS011;8446;50.998;6.250;2023-07-31T08:15:23;7.67;;;3.60;;
16665;SDS011;8446;50.998;6.250;2023-07-31T08:17:49;6.27;;;2.90;;
16665;SDS011;8446;50.998;6.250;2023-07-31T08:20:18;10.90;;;3.20;;
16665;SDS011;8446;50.998;6.250;2023-07-31T08:22:44;9.43;;;3.30;;
16665;SDS011;8446;50.998;6.250;2023-07-31T08:25:11;7.47;;;2.97;;
16665;SDS011;8446;50.998;6.250;2023-07-31T08:27:38;5.70;;;3.57;;
16665;SDS011;8446;50.998;6.250;2023-07-31T08:30:08;5.50;;;2.80;;
16665;SDS011;8446;50.998;6.250;2023-07-31T08:32:36;4.63;;;3.33;;
16665;SDS011;8446;50.998;6.250;2023-07-31T08:35:03;3.90;;;2.63;;
16665;SDS011;8446;50.998;6.250;2023-07-31T08:37:31;6.30;;;3.23;;
16665;SDS011;8446;50.998;6.250;2023-07-31T08:39:58;5.27;;;3.10;;
16665;SDS011;8446;50.998;6.250;2023-07-31T08:42:25;5.13;;;3.10;;
16665;SDS011;8446;50.998;6.250;2023-07-31T08:44:52;11.33;;;4.20;;
16665;SDS011;8446;50.998;6.250;2023-07-31T08:47:21;5.90;;;3.37;;
16665;SDS011;8446;50.998;6.250;2023-07-31T08:49:49;4.50;;;3.40;;
16665;SDS011;8446;50.998;6.250;2023-07-31T08:52:17;8.53;;;3.00;;
16665;SDS011;8446;50.998;6.250;2023-07-31T08:54:45;6.07;;;3.07;;
16665;SDS011;8446;50.998;6.250;2023-07-31T08:57:12;4.33;;;3.00;;
16665;SDS011;8446;50.998;6.250;2023-07-31T08:59:40;8.30;;;3.00;;
16665;SDS011;8446;50.998;6.250;2023-07-31T09:02:08;8.77;;;3.17;;
16665;SDS011;8446;50.998;6.250;2023-07-31T09:04:35;4.23;;;2.87;;
16665;SDS011;8446;50.998;6.250;2023-07-31T09:07:03;5.83;;;2.60;;
16665;SDS011;8446;50.998;6.250;2023-07-31T09:09:31;5.60;;;3.10;;
16665;SDS011;8446;50.998;6.250;2023-07-31T09:11:59;5.10;;;2.77;;
16665;SDS011;8446;50.998;6.250;2023-07-31T09:14:27;7.00;;;3.03;;
16665;SDS011;8446;50.998;6.250;2023-07-31T09:16:54;18.33;;;4.03;;
16665;SDS011;8446;50.998;6.250;2023-07-31T09:19:27;7.67;;;3.10;;
16665;SDS011;8446;50.998;6.250;2023-07-31T09:21:55;8.57;;;3.07;;
16665;SDS011;8446;50.998;6.250;2023-07-31T09:24:25;11.20;;;2.90;;
16665;SDS011;8446;50.998;6.250;2023-07-31T09:26:53;4.27;;;3.00;;
16665;SDS011;8446;50.998;6.250;2023-07-31T09:29:22;6.13;;;3.20;;
16665;SDS011;8446;50.998;6.250;2023-07-31T09:31:50;7.10;;;3.70;;
16665;SDS011;8446;50.998;6.250;2023-07-31T09:34:17;7.87;;;2.70;;
16665;SDS011;8446;50.998;6.250;2023-07-31T09:36:44;6.47;;;3.20;;
16665;SDS011;8446;50.998;6.250;2023-07-31T09:39:13;8.90;;;3.20;;
16665;SDS011;8446;50.998;6.250;2023-07-31T09:41:42;6.27;;;3.03;;
16665;SDS011;8446;50.998;6.250;2023-07-31T09:44:10;7.80;;;2.80;;
16665;SDS011;8446;50.998;6.250;2023-07-31T09:46:38;3.40;;;2.23;;
16665;SDS011;8446;50.998;6.250;2023-07-31T09:49:06;9.10;;;3.20;;
16665;SDS011;8446;50.998;6.250;2023-07-31T09:51:34;8.53;;;2.77;;
16665;SDS011;8446;50.998;6.250;2023-07-31T09:54:03;7.03;;;3.40;;
16665;SDS011;8446;50.998;6.250;2023-07-31T09:56:35;4.47;;;3.30;;
16665;SDS011;8446;50.998;6.250;2023-07-31T09:59:03;7.87;;;3.33;;
16665;SDS011;8446;50.998;6.250;2023-07-31T10:01:31;7.13;;;2.97;;
16665;SDS011;8446;50.998;6.250;2023-07-31T10:03:59;7.70;;;3.20;;
16665;SDS011;8446;50.998;6.250;2023-07-31T10:06:28;6.80;;;3.00;;
16665;SDS011;8446;50.998;6.250;2023-07-31T10:08:55;6.00;;;2.90;;
16665;SDS011;8446;50.998;6.250;2023-07-31T10:11:22;5.80;;;2.90;;
16665;SDS011;8446;50.998;6.250;2023-07-31T10:13:53;9.07;;;3.20;;
16665;SDS011;8446;50.998;6.250;2023-07-31T10:16:21;6.33;;;3.70;;
16665;SDS011;8446;50.998;6.250;2023-07-31T10:18:48;5.97;;;3.37;;
16665;SDS011;8446;50.998;6.250;2023-07-31T10:21:18;3.40;;;2.60;;
16665;SDS011;8446;50.998;6.250;2023-07-31T10:23:45;5.53;;;2.90;;
16665;SDS011;8446;50.998;6.250;2023-07-31T10:26:14;6.07;;;2.43;;
16665;SDS011;8446;50.998;6.250;2023-07-31T10:28:43;3.10;;;2.30;;
16665;SDS011;8446;50.998;6.250;2023-07-31T10:31:12;2.43;;;1.80;;
16665;SDS011;8446;50.998;6.250;2023-07-31T10:33:39;14.03;;;2.27;;
16665;SDS011;8446;50.998;6.250;2023-07-31T10:36:12;4.33;;;2.57;;
16665;SDS011;8446;50.998;6.250;2023-07-31T10:38:41;2.73;;;1.63;;
16665;SDS011;8446;50.998;6.250;2023-07-31T10:41:08;3.83;;;2.07;;
16665;SDS011;8446;50.998;6.250;2023-07-31T10:43:36;1.83;;;1.53;;
16665;SDS011;8446;50.998;6.250;2023-07-31T10:46:06;1.40;;;1.30;;
16665;SDS011;8446;50.998;6.250;2023-07-31T10:48:34;1.57;;;1.47;;
16665;SDS011;8446;50.998;6.250;2023-07-31T10:51:06;4.10;;;1.97;;
16665;SDS011;8446;50.998;6.250;2023-07-31T10:53:35;4.60;;;1.70;;
16665;SDS011;8446;50.998;6.250;2023-07-31T10:56:04;2.13;;;1.50;;
16665;SDS011;8446;50.998;6.250;2023-07-31T10:58:32;2.53;;;1.97;;
16665;SDS011;8446;50.998;6.250;2023-07-31T11:01:00;2.00;;;1.80;;
16665;SDS011;8446;50.998;6.250;2023-07-31T11:03:40;2.40;;;1.60;;
16665;SDS011;8446;50.998;6.250;2023-07-31T11:06:08;3.03;;;1.80;;
16665;SDS011;8446;50.998;6.250;2023-07-31T11:08:35;3.40;;;1.87;;
16665;SDS011;8446;50.998;6.250;2023-07-31T11:11:09;2.60;;;1.60;;
16665;SDS011;8446;50.998;6.250;2023-07-31T11:13:42;2.13;;;1.90;;
16665;SDS011;8446;50.998;6.250;2023-07-31T11:16:11;10.67;;;1.90;;
16665;SDS011;8446;50.998;6.250;2023-07-31T11:18:39;2.40;;;1.40;;
16665;SDS011;8446;50.998;6.250;2023-07-31T11:21:07;1.87;;;1.77;;
16665;SDS011;8446;50.998;6.250;2023-07-31T11:23:36;2.20;;;1.80;;
16665;SDS011;8446;50.998;6.250;2023-07-31T11:26:04;4.00;;;1.90;;
16665;SDS011;8446;50.998;6.250;2023-07-31T11:28:34;3.43;;;1.87;;
16665;SDS011;8446;50.998;6.250;2023-07-31T11:31:01;2.00;;;1.67;;
16665;SDS011;8446;50.998;6.250;2023-07-31T11:33:29;2.30;;;1.73;;
16665;SDS011;8446;50.998;6.250;2023-07-31T11:35:56;2.80;;;1.67;;
16665;SDS011;8446;50.998;6.250;2023-07-31T11:38:24;2.80;;;1.97;;
16665;SDS011;8446;50.998;6.250;2023-07-31T11:40:52;3.23;;;1.83;;
16665;SDS011;8446;50.998;6.250;2023-07-31T11:43:19;2.10;;;1.73;;
16665;SDS011;8446;50.998;6.250;2023-07-31T11:45:49;8.40;;;2.10;;
16665;SDS011;8446;50.998;6.250;2023-07-31T11:48:21;4.60;;;2.50;;
16665;SDS011;8446;50.998;6.250;2023-07-31T11:50:49;3.97;;;2.20;;
16665;SDS011;8446;50.998;6.250;2023-07-31T11:53:19;3.37;;;1.93;;
16665;SDS011;8446;50.998;6.250;2023-07-31T11:55:51;2.70;;;1.80;;
16665;SDS011;8446;50.998;6.250;2023-07-31T11:58:18;4.13;;;2.40;;
16665;SDS011;8446;50.998;6.250;2023-07-31T12:00:46;3.10;;;2.37;;
16665;SDS011;8446;50.998;6.250;2023-07-31T12:03:14;5.70;;;2.43;;
16665;SDS011;8446;50.998;6.250;2023-07-31T12:05:41;6.30;;;2.37;;
16665;SDS011;8446;50.998;6.250;2023-07-31T12:08:09;5.73;;;2.80;;
16665;SDS011;8446;50.998;6.250;2023-07-31T12:10:36;5.83;;;3.00;;
16665;SDS011;8446;50.998;6.250;2023-07-31T12:13:06;3.73;;;2.43;;
16665;SDS011;8446;50.998;6.250;2023-07-31T12:15:38;5.13;;;2.57;;
16665;SDS011;8446;50.998;6.250;2023-07-31T12:18:07;3.43;;;2.63;;
16665;SDS011;8446;50.998;6.250;2023-07-31T12:20:39;5.87;;;2.70;;
16665;SDS011;8446;50.998;6.250;2023-07-31T12:23:12;3.13;;;2.47;;
16665;SDS011;8446;50.998;6.250;2023-07-31T12:25:40;4.30;;;2.50;;
16665;SDS011;8446;50.998;6.250;2023-07-31T12:28:07;3.50;;;2.37;;
16665;SDS011;8446;50.998;6.250;2023-07-31T12:30:37;4.97;;;2.90;;
16665;SDS011;8446;50.998;6.250;2023-07-31T12:33:05;3.47;;;2.40;;
16665;SDS011;8446;50.998;6.250;2023-07-31T12:35:37;5.40;;;2.80;;
16665;SDS011;8446;50.998;6.250;2023-07-31T12:38:06;4.63;;;2.40;;
16665;SDS011;8446;50.998;6.250;2023-07-31T12:40:35;3.17;;;2.40;;
16665;SDS011;8446;50.998;6.250;2023-07-31T12:43:04;3.47;;;2.63;;
16665;SDS011;8446;50.998;6.250;2023-07-31T12:45:31;5.57;;;2.80;;
16665;SDS011;8446;50.998;6.250;2023-07-31T12:47:58;3.17;;;2.50;;
16665;SDS011;8446;50.998;6.250;2023-07-31T12:50:25;6.47;;;3.30;;
16665;SDS011;8446;50.998;6.250;2023-07-31T12:52:54;3.80;;;2.43;;
16665;SDS011;8446;50.998;6.250;2023-07-31T12:55:21;8.93;;;3.30;;
16665;SDS011;8446;50.998;6.250;2023-07-31T12:57:48;5.63;;;2.67;;
16665;SDS011;8446;50.998;6.250;2023-07-31T13:00:15;4.43;;;2.80;;
16665;SDS011;8446;50.998;6.250;2023-07-31T13:02:42;4.00;;;2.97;;
16665;SDS011;8446;50.998;6.250;2023-07-31T13:05:08;6.37;;;3.20;;
16665;SDS011;8446;50.998;6.250;2023-07-31T13:07:35;3.10;;;2.80;;
16665;SDS011;8446;50.998;6.250;2023-07-31T13:10:05;5.00;;;3.07;;
16665;SDS011;8446;50.998;6.250;2023-07-31T13:12:33;4.50;;;2.67;;
16665;SDS011;8446;50.998;6.250;2023-07-31T13:15:00;5.20;;;2.63;;
16665;SDS011;8446;50.998;6.250;2023-07-31T13:17:27;8.43;;;3.00;;
16665;SDS011;8446;50.998;6.250;2023-07-31T13:19:53;6.07;;;2.40;;
16665;SDS011;8446;50.998;6.250;2023-07-31T13:22:20;3.90;;;2.20;;
16665;SDS011;8446;50.998;6.250;2023-07-31T13:24:47;5.17;;;2.80;;
16665;SDS011;8446;50.998;6.250;2023-07-31T13:27:15;3.53;;;2.40;;
16665;SDS011;8446;50.998;6.250;2023-07-31T13:29:43;3.50;;;2.60;;
16665;SDS011;8446;50.998;6.250;2023-07-31T13:32:10;6.00;;;2.87;;
16665;SDS011;8446;50.998;6.250;2023-07-31T13:34:37;3.57;;;2.40;;
16665;SDS011;8446;50.998;6.250;2023-07-31T13:37:04;4.70;;;2.70;;
16665;SDS011;8446;50.998;6.250;2023-07-31T13:39:32;5.67;;;2.60;;
16665;SDS011;8446;50.998;6.250;2023-07-31T13:41:59;3.33;;;2.30;;
16665;SDS011;8446;50.998;6.250;2023-07-31T13:44:27;3.60;;;2.50;;
16665;SDS011;8446;50.998;6.250;2023-07-31T13:46:53;5.03;;;2.70;;
16665;SDS011;8446;50.998;6.250;2023-07-31T13:49:20;2.43;;;2.10;;
16665;SDS011;8446;50.998;6.250;2023-07-31T13:51:47;5.00;;;2.50;;
16665;SDS011;8446;50.998;6.250;2023-07-31T13:54:14;3.70;;;2.70;;
16665;SDS011;8446;50.998;6.250;2023-07-31T13:56:42;2.90;;;2.30;;
16665;SDS011;8446;50.998;6.250;2023-07-31T13:59:09;4.10;;;2.40;;
16665;SDS011;8446;50.998;6.250;2023-07-31T14:01:37;6.13;;;3.10;;
16665;SDS011;8446;50.998;6.250;2023-07-31T14:04:04;5.93;;;2.87;;
16665;SDS011;8446;50.998;6.250;2023-07-31T14:06:31;5.43;;;3.20;;
16665;SDS011;8446;50.998;6.250;2023-07-31T14:08:58;7.17;;;3.20;;
16665;SDS011;8446;50.998;6.250;2023-07-31T14:11:24;6.30;;;3.10;;
16665;SDS011;8446;50.998;6.250;2023-07-31T14:13:52;4.50;;;3.20;;
16665;SDS011;8446;50.998;6.250;2023-07-31T14:16:18;4.80;;;3.53;;
16665;SDS011;8446;50.998;6.250;2023-07-31T14:18:47;5.57;;;3.33;;
16665;SDS011;8446;50.998;6.250;2023-07-31T14:21:13;6.63;;;3.03;;
16665;SDS011;8446;50.998;6.250;2023-07-31T14:23:40;3.60;;;2.63;;
16665;SDS011;8446;50.998;6.250;2023-07-31T14:26:07;3.50;;;2.73;;
16665;SDS011;8446;50.998;6.250;2023-07-31T14:28:34;4.10;;;3.07;;
16665;SDS011;8446;50.998;6.250;2023-07-31T14:31:01;8.13;;;3.53;;
16665;SDS011;8446;50.998;6.250;2023-07-31T14:33:28;4.17;;;2.93;;
16665;SDS011;8446;50.998;6.250;2023-07-31T14:35:56;4.30;;;3.10;;
16665;SDS011;8446;50.998;6.250;2023-07-31T14:38:23;5.30;;;2.90;;
16665;SDS011;8446;50.998;6.250;2023-07-31T14:40:49;6.60;;;3.90;;
16665;SDS011;8446;50.998;6.250;2023-07-31T14:43:17;7.67;;;2.87;;
16665;SDS011;8446;50.998;6.250;2023-07-31T14:45:43;5.50;;;4.00;;
16665;SDS011;8446;50.998;6.250;2023-07-31T14:48:11;5.53;;;3.43;;
16665;SDS011;8446;50.998;6.250;2023-07-31T14:50:39;4.90;;;3.10;;
16665;SDS011;8446;50.998;6.250;2023-07-31T14:53:07;8.40;;;3.67;;
16665;SDS011;8446;50.998;6.250;2023-07-31T14:55:34;4.73;;;3.00;;
16665;SDS011;8446;50.998;6.250;2023-07-31T14:58:01;3.30;;;2.50;;
16665;SDS011;8446;50.998;6.250;2023-07-31T15:00:28;4.70;;;3.00;;